Aérodrome :
LOGIN :

S'inscrire | Disclaimer

   EN    FR    IT 

 










Légende :    VFR   VFR Marginal   IFR   IFR Intensif   IFR Très Intensif
Visi : 
Plafond : 
>= 8 km
>= 3000ft
5 à 8 km
1000 à 3000 ft
1500m à 5 km
500 à 1000 ft
800 à 1500m
200 à 500 ft
< 800m
< 200 ft
Symboles :   Orages  Brouillard  Fortes neiges  Fortes précipitations  Vent > 20 kt
SIGMETs :   Divers  Orages  Givrage  Turbulence  Onde Orograph.  Cendres Volcan.







- Altitude de l'aérodrome : 989 ft
- Code IATA : TRN


LIMF - Torino Caselle

DERNIER METAR :
  • 160620Z 03009KT 9999 FEW012 SCT045 21/17 Q1014

METARs EXPIRÉS :
  • 160550Z 01007KT 9999 FEW030 SCT060 22/16 Q1014
  • 160520Z 01004KT 9999 SCT040 21/17 Q1014
  • 160450Z 01004KT 9999 SCT060 21/17 Q1014
  • 160350Z 35006KT 9999 SCT035 20/15 Q1013

TAF TAF LIMF
Valide du 16 à 06h jusqu'au 17 à 06h UTC


160500Z 1606/1706 VRB05KT 9999 SCT040
TEMPO 1609/1614 TSRA
Pas de NOTAMs connus pour ce terrain.
2 SIGMETs publiés pour la FIR Milano (LIMM) :
 
Turbulence forte
LIMM SIGMET 2 VALID 160500/160700 LIIP
LIMM MILANO FIR SEV TURB FCST W OF LINE N4648 E01238 - N4517 E01313 ABV FL260 MOV E NC=
Orages noyés dans la masse
LIMM SIGMET 1 VALID 160400/160700 LIIP
LIMM MILANO FIR EMBD TS OBS WI N4621 E01047 - N4625 E01339 - N4536 E01404 - N4509 E01252 - N4330 E01439 - N4343 E01158 - N4605 E01004 - N4621 E01047 ABV FL380 MOV E WKN=



MET'MAP, la Météo Aéronautique d'un coup d'oeil ! - Copyright ORBIFLY Décembre 2007 - Disclaimer

ORBIFLY MET'MAP TEAM :

Programmation & Développement : Alexandra Zaïnal
Conception & Développement : Baudouin d'Aumeries
Co-Programmation & Développement : Marc-Olivier Méhu
Soutien technique & logistique : Manuel Goepfert

Contact : metmap@orbifly.com




SOURCES & CREDITS :

   NOAA